createdAt,value
2019-01-14T00:00:36.280Z,3.30
2019-01-14T00:03:04.530Z,3.57
2019-01-14T00:05:33.931Z,3.97
2019-01-14T00:08:04.868Z,4.33
2019-01-14T00:10:35.980Z,3.57
2019-01-14T00:13:04.820Z,3.00
2019-01-14T00:15:32.859Z,3.63
2019-01-14T00:18:01.470Z,2.53
2019-01-14T00:20:31.142Z,4.00
2019-01-14T00:22:59.814Z,3.17
2019-01-14T00:25:28.440Z,2.70
2019-01-14T00:27:57.097Z,3.20
2019-01-14T00:30:26.120Z,2.93
2019-01-14T00:32:54.792Z,2.27
2019-01-14T00:35:23.602Z,2.47
2019-01-14T00:37:52.278Z,2.27
2019-01-14T00:40:21.587Z,2.03
2019-01-14T00:42:50.671Z,2.40
2019-01-14T00:45:19.239Z,2.30
2019-01-14T00:47:48.265Z,2.70
2019-01-14T00:50:16.948Z,2.33
2019-01-14T00:52:48.065Z,3.10
2019-01-14T00:55:16.848Z,2.03
2019-01-14T00:57:48.681Z,3.17
2019-01-14T01:00:20.529Z,2.03
2019-01-14T01:02:49.362Z,2.30
2019-01-14T01:05:18.228Z,2.20
2019-01-14T01:07:46.726Z,3.80
2019-01-14T01:10:15.732Z,2.43
2019-01-14T01:12:45.082Z,2.67
2019-01-14T01:15:15.203Z,2.37
2019-01-14T01:17:43.940Z,2.67
2019-01-14T01:20:16.364Z,1.90
2019-01-14T01:22:45.560Z,2.47
2019-01-14T01:25:14.278Z,1.93
2019-01-14T01:27:43.593Z,2.43
2019-01-14T01:30:17.215Z,1.87
2019-01-14T01:32:46.019Z,2.00
2019-01-14T01:35:16.452Z,2.67
2019-01-14T01:37:47.873Z,2.27
2019-01-14T01:40:18.298Z,1.67
2019-01-14T01:42:47.079Z,2.80
2019-01-14T01:45:17.208Z,2.00
2019-01-14T01:47:46.194Z,2.33
2019-01-14T01:50:17.007Z,2.20
2019-01-14T01:52:48.214Z,1.70
2019-01-14T01:55:16.927Z,3.20
2019-01-14T01:57:45.872Z,1.83
2019-01-14T02:00:18.400Z,2.03
2019-01-14T02:02:47.943Z,2.73
2019-01-14T02:05:19.825Z,2.37
2019-01-14T02:07:49.257Z,2.67
2019-01-14T02:10:20.943Z,2.27
2019-01-14T02:12:53.387Z,2.10
2019-01-14T02:15:23.097Z,2.00
2019-01-14T02:17:52.063Z,2.00
2019-01-14T02:20:23.716Z,3.27
2019-01-14T02:22:52.250Z,2.50
2019-01-14T02:25:22.036Z,2.73
2019-01-14T02:27:50.821Z,3.80
2019-01-14T02:30:23.200Z,3.00
2019-01-14T02:32:51.974Z,1.90
2019-01-14T02:35:21.268Z,2.63
2019-01-14T02:37:50.174Z,2.20
2019-01-14T02:40:22.440Z,2.63
2019-01-14T02:42:51.180Z,2.47
2019-01-14T02:45:20.224Z,2.17
2019-01-14T02:47:51.881Z,2.47
2019-01-14T02:50:22.167Z,2.70
2019-01-14T02:52:50.840Z,3.30
2019-01-14T02:55:19.548Z,2.30
2019-01-14T02:57:48.477Z,2.53
2019-01-14T03:00:27.059Z,2.30
2019-01-14T03:02:55.911Z,3.10
2019-01-14T03:05:24.515Z,2.40
2019-01-14T03:07:53.643Z,3.33
2019-01-14T03:10:22.391Z,2.93
2019-01-14T03:12:51.078Z,2.40
2019-01-14T03:15:20.790Z,2.70
2019-01-14T03:17:49.470Z,2.70
2019-01-14T03:20:18.144Z,2.70
2019-01-14T03:22:47.227Z,2.20
2019-01-14T03:25:16.092Z,1.90
2019-01-14T03:27:44.949Z,2.20
2019-01-14T03:30:15.841Z,3.30
2019-01-14T03:32:45.280Z,2.40
2019-01-14T03:35:14.336Z,3.47
2019-01-14T03:37:46.396Z,2.97
2019-01-14T03:40:18.243Z,2.90
2019-01-14T03:42:47.414Z,2.77
2019-01-14T03:45:16.512Z,2.43
2019-01-14T03:47:46.783Z,2.97
2019-01-14T03:50:17.679Z,3.50
2019-01-14T03:52:50.550Z,3.10
2019-01-14T03:55:19.655Z,3.03
2019-01-14T03:57:51.390Z,2.83
2019-01-14T04:00:20.602Z,3.03
2019-01-14T04:02:49.806Z,2.30
2019-01-14T04:05:19.178Z,2.80
2019-01-14T04:07:47.803Z,2.53
2019-01-14T04:10:17.411Z,2.70
2019-01-14T04:12:46.588Z,3.07
2019-01-14T04:15:17.538Z,3.10
2019-01-14T04:17:47.322Z,3.23
2019-01-14T04:20:19.721Z,2.87
2019-01-14T04:22:48.583Z,3.97
2019-01-14T04:25:17.272Z,3.60
2019-01-14T04:27:48.925Z,3.30
2019-01-14T04:30:20.558Z,3.53
2019-01-14T04:32:49.523Z,3.97
2019-01-14T04:35:19.467Z,4.47
2019-01-14T04:37:51.328Z,4.93
2019-01-14T04:40:20.052Z,3.53
2019-01-14T04:42:48.880Z,3.57
2019-01-14T04:45:17.969Z,4.57
2019-01-14T04:47:46.712Z,4.17
2019-01-14T04:50:21.841Z,4.47
2019-01-14T04:52:50.696Z,4.57
2019-01-14T04:55:19.788Z,4.67
2019-01-14T04:57:48.933Z,4.53
2019-01-14T05:00:20.280Z,4.40
2019-01-14T05:02:48.966Z,4.10
2019-01-14T05:05:21.141Z,3.83
2019-01-14T05:07:50.072Z,4.03
2019-01-14T05:10:19.122Z,3.90
2019-01-14T05:12:51.073Z,4.23
2019-01-14T05:15:20.257Z,4.60
2019-01-14T05:17:48.978Z,3.93
2019-01-14T05:20:22.427Z,4.13
2019-01-14T05:22:51.976Z,4.20
2019-01-14T05:25:23.535Z,3.17
2019-01-14T05:27:55.489Z,4.33
2019-01-14T05:30:26.629Z,3.97
2019-01-14T05:32:55.670Z,4.03
2019-01-14T05:35:24.259Z,5.37
2019-01-14T05:37:52.922Z,3.80
2019-01-14T05:40:25.722Z,6.03
2019-01-14T05:42:54.323Z,4.17
2019-01-14T05:45:24.476Z,3.53
2019-01-14T05:47:53.041Z,4.30
2019-01-14T05:50:24.703Z,4.73
2019-01-14T05:52:54.211Z,4.17
2019-01-14T05:55:26.049Z,4.57
2019-01-14T05:57:55.195Z,3.93
2019-01-14T06:00:36.444Z,5.10
2019-01-14T06:03:06.277Z,5.50
2019-01-14T06:05:35.971Z,4.47
2019-01-14T06:08:04.669Z,4.80
2019-01-14T06:10:36.386Z,6.13
2019-01-14T06:13:05.594Z,4.40
2019-01-14T06:15:38.505Z,4.20
2019-01-14T06:18:07.519Z,4.30
2019-01-14T06:20:36.853Z,4.20
2019-01-14T06:23:05.596Z,3.93
2019-01-14T06:25:34.434Z,4.50
2019-01-14T06:28:04.015Z,5.10
2019-01-14T06:30:35.611Z,5.00
2019-01-14T06:33:04.898Z,4.13
2019-01-14T06:35:33.522Z,4.60
2019-01-14T06:38:02.139Z,4.80
2019-01-14T06:40:34.448Z,4.07
2019-01-14T06:43:04.748Z,4.03
2019-01-14T06:45:32.910Z,4.47
2019-01-14T06:48:04.762Z,3.73
2019-01-14T06:50:34.052Z,4.30
2019-01-14T06:53:02.715Z,3.73
2019-01-14T06:55:32.037Z,3.67
2019-01-14T06:58:01.227Z,3.77
2019-01-14T07:00:30.242Z,3.60
2019-01-14T07:03:02.062Z,4.00
2019-01-14T07:05:32.152Z,3.77
2019-01-14T07:08:03.692Z,3.50
2019-01-14T07:10:33.183Z,4.27
2019-01-14T07:13:01.835Z,5.67
2019-01-14T07:15:31.121Z,3.60
2019-01-14T07:17:59.710Z,4.90
2019-01-14T07:20:28.410Z,5.30
2019-01-14T07:22:56.989Z,5.47
2019-01-14T07:25:25.687Z,8.47
2019-01-14T07:27:53.729Z,8.10
2019-01-14T07:30:22.630Z,6.40
2019-01-14T07:32:54.617Z,5.93
2019-01-14T07:35:23.698Z,3.97
2019-01-14T07:37:52.381Z,3.80
2019-01-14T07:40:21.674Z,4.97
2019-01-14T07:42:51.248Z,3.83
2019-01-14T07:45:21.414Z,4.10
2019-01-14T07:47:50.557Z,3.03
2019-01-14T07:50:19.797Z,3.57
2019-01-14T07:52:51.616Z,3.93
2019-01-14T07:55:21.096Z,3.20
2019-01-14T07:57:50.898Z,3.57
2019-01-14T08:00:23.760Z,4.80
2019-01-14T08:02:52.517Z,3.27
2019-01-14T08:05:24.738Z,3.30
2019-01-14T08:07:53.531Z,3.00
2019-01-14T08:10:21.725Z,3.10
2019-01-14T08:12:52.749Z,3.47
2019-01-14T08:15:29.056Z,2.60
2019-01-14T08:18:06.148Z,2.97
2019-01-14T08:20:37.102Z,3.10
2019-01-14T08:23:06.173Z,2.87
2019-01-14T08:25:35.517Z,2.97
2019-01-14T08:28:03.862Z,3.97
2019-01-14T08:30:32.362Z,3.07
2019-01-14T08:33:01.778Z,2.87
2019-01-14T08:35:31.235Z,2.50
2019-01-14T08:38:00.288Z,2.60
2019-01-14T08:40:32.248Z,1.83
2019-01-14T08:43:00.937Z,1.70
2019-01-14T08:45:29.405Z,1.97
2019-01-14T08:47:59.128Z,2.33
2019-01-14T08:50:28.365Z,1.70
2019-01-14T08:52:56.423Z,2.73
2019-01-14T08:55:24.850Z,2.27
2019-01-14T08:57:54.769Z,1.83
2019-01-14T09:00:23.688Z,1.70
2019-01-14T09:02:56.034Z,2.03
2019-01-14T09:05:24.347Z,2.50
2019-01-14T09:07:53.012Z,2.10
2019-01-14T09:10:26.188Z,2.40
2019-01-14T09:12:54.987Z,2.53
2019-01-14T09:15:23.657Z,2.33
2019-01-14T09:18:02.376Z,2.30
2019-01-14T09:20:25.765Z,2.60
2019-01-14T09:22:54.465Z,2.00
2019-01-14T09:25:23.188Z,1.97
2019-01-14T09:27:52.892Z,2.30
2019-01-14T09:30:23.240Z,2.10
2019-01-14T09:32:52.157Z,2.43
2019-01-14T09:35:20.988Z,1.80
2019-01-14T09:37:50.055Z,2.20
2019-01-14T09:40:20.042Z,2.00
2019-01-14T09:42:49.830Z,1.97
2019-01-14T09:45:18.444Z,3.43
2019-01-14T09:47:50.941Z,1.90
2019-01-14T09:50:20.961Z,1.70
2019-01-14T09:52:52.980Z,2.23
2019-01-14T09:55:22.298Z,1.73
2019-01-14T09:57:51.608Z,2.27
2019-01-14T10:00:20.781Z,1.53
2019-01-14T10:02:55.545Z,2.00
2019-01-14T10:05:24.031Z,2.37
2019-01-14T10:07:53.197Z,3.70
2019-01-14T10:10:21.900Z,1.83
2019-01-14T10:12:50.785Z,1.53
2019-01-14T10:15:21.710Z,2.03
2019-01-14T10:17:56.244Z,1.97
2019-01-14T10:20:25.090Z,1.93
2019-01-14T10:22:56.839Z,1.73
2019-01-14T10:25:25.815Z,1.50
2019-01-14T10:27:55.090Z,1.20
2019-01-14T10:30:24.553Z,2.00
2019-01-14T10:32:53.552Z,1.60
2019-01-14T10:35:22.297Z,1.70
2019-01-14T10:37:51.590Z,1.77
2019-01-14T10:40:23.517Z,2.20
2019-01-14T10:42:52.599Z,1.60
2019-01-14T10:45:22.779Z,1.93
2019-01-14T10:47:52.606Z,1.43
2019-01-14T10:50:21.610Z,1.50
2019-01-14T10:52:50.369Z,1.90
2019-01-14T10:55:19.284Z,1.83
2019-01-14T10:57:49.351Z,1.43
2019-01-14T11:00:20.597Z,1.67
2019-01-14T11:02:49.473Z,1.90
2019-01-14T11:05:22.476Z,2.00
2019-01-14T11:07:52.303Z,1.60
2019-01-14T11:10:22.392Z,2.40
2019-01-14T11:12:54.924Z,1.57
2019-01-14T11:15:23.579Z,2.00
2019-01-14T11:17:52.702Z,1.53
2019-01-14T11:20:26.667Z,2.20
2019-01-14T11:22:54.886Z,2.10
2019-01-14T11:25:23.528Z,1.33
2019-01-14T11:27:52.608Z,2.43
2019-01-14T11:30:32.409Z,1.90
2019-01-14T11:33:01.274Z,2.67
2019-01-14T11:35:29.896Z,2.33
2019-01-14T11:37:58.673Z,2.90
2019-01-14T11:40:36.425Z,2.03
2019-01-14T11:43:05.046Z,1.87
2019-01-14T11:45:34.227Z,1.83
2019-01-14T11:48:03.097Z,1.93
2019-01-14T11:50:31.848Z,2.60
2019-01-14T11:53:01.228Z,3.03
2019-01-14T11:55:38.174Z,2.43
2019-01-14T11:58:15.035Z,1.83
2019-01-14T12:00:47.700Z,1.40
2019-01-14T12:03:16.426Z,1.77
2019-01-14T12:05:44.944Z,1.63
2019-01-14T12:08:14.015Z,1.40
2019-01-14T12:10:45.085Z,1.67
2019-01-14T12:13:13.986Z,1.30
2019-01-14T12:15:42.757Z,1.40
2019-01-14T12:18:12.903Z,1.90
2019-01-14T12:20:41.645Z,1.60
2019-01-14T12:23:11.008Z,1.40
2019-01-14T12:25:40.583Z,1.50
2019-01-14T12:28:10.565Z,1.30
2019-01-14T12:30:41.613Z,1.57
2019-01-14T12:33:10.566Z,1.90
2019-01-14T12:35:39.235Z,1.37
2019-01-14T12:38:10.668Z,1.77
2019-01-14T12:40:42.515Z,1.00
2019-01-14T12:43:11.742Z,1.40
2019-01-14T12:45:40.400Z,1.40
2019-01-14T12:48:12.186Z,1.40
2019-01-14T12:50:42.086Z,1.77
2019-01-14T12:53:14.070Z,1.47
2019-01-14T12:55:45.846Z,1.40
2019-01-14T12:58:14.949Z,1.50
2019-01-14T13:00:45.164Z,1.50
2019-01-14T13:03:14.309Z,1.60
2019-01-14T13:05:43.028Z,1.53
2019-01-14T13:08:12.701Z,1.80
2019-01-14T13:10:42.399Z,1.43
2019-01-14T13:13:11.542Z,2.60
2019-01-14T13:15:40.334Z,3.27
2019-01-14T13:18:08.982Z,2.10
2019-01-14T13:20:37.711Z,1.70
2019-01-14T13:23:06.828Z,1.80
2019-01-14T13:25:36.684Z,2.27
2019-01-14T13:28:05.615Z,1.17
2019-01-14T13:30:37.290Z,1.93
2019-01-14T13:33:06.426Z,2.10
2019-01-14T13:35:35.612Z,1.90
2019-01-14T13:38:04.673Z,1.40
2019-01-14T13:40:33.450Z,1.70
2019-01-14T13:43:02.451Z,1.70
2019-01-14T13:45:31.876Z,2.13
2019-01-14T13:48:00.795Z,1.63
2019-01-14T13:50:29.886Z,2.03
2019-01-14T13:53:01.906Z,2.10
2019-01-14T13:55:33.305Z,2.07
2019-01-14T13:58:02.123Z,2.30
2019-01-14T14:00:34.066Z,2.33
2019-01-14T14:03:03.526Z,2.10
2019-01-14T14:05:32.272Z,2.33
2019-01-14T14:08:01.391Z,2.03
2019-01-14T14:10:31.493Z,1.73
2019-01-14T14:13:01.388Z,1.87
2019-01-14T14:15:30.213Z,2.20
2019-01-14T14:17:58.842Z,1.93
2019-01-14T14:20:27.406Z,2.77
2019-01-14T14:22:59.712Z,1.90
2019-01-14T14:25:28.548Z,2.30
2019-01-14T14:27:57.195Z,1.73
2019-01-14T14:30:28.737Z,2.13
2019-01-14T14:32:57.905Z,2.60
2019-01-14T14:35:26.946Z,2.37
2019-01-14T14:38:01.371Z,2.47
2019-01-14T14:40:29.108Z,2.47
2019-01-14T14:42:57.852Z,2.10
2019-01-14T14:45:29.362Z,2.60
2019-01-14T14:48:04.909Z,2.33
2019-01-14T14:50:49.190Z,3.37
2019-01-14T14:53:29.789Z,2.77
2019-01-14T14:56:00.322Z,2.57
2019-01-14T14:58:28.946Z,3.30
2019-01-14T15:00:58.154Z,2.70
2019-01-14T15:03:27.117Z,3.20
2019-01-14T15:05:56.351Z,2.50
2019-01-14T15:08:27.989Z,3.00
2019-01-14T15:10:57.730Z,2.83
2019-01-14T15:13:27.693Z,3.03
2019-01-14T15:15:56.417Z,3.10
2019-01-14T15:18:25.058Z,3.33
2019-01-14T15:20:54.212Z,2.40
2019-01-14T15:23:24.037Z,3.03
2019-01-14T15:25:54.591Z,3.07
2019-01-14T15:28:23.440Z,3.23
2019-01-14T15:30:52.186Z,3.30
2019-01-14T15:33:24.150Z,2.97
2019-01-14T15:35:53.445Z,3.87
2019-01-14T15:38:22.018Z,2.53
2019-01-14T15:40:52.134Z,2.67
2019-01-14T15:43:21.736Z,2.47
2019-01-14T15:45:50.998Z,2.93
2019-01-14T15:48:29.420Z,2.80
2019-01-14T15:51:09.812Z,2.40
2019-01-14T15:53:39.897Z,2.17
2019-01-14T15:56:08.692Z,4.00
2019-01-14T15:58:37.481Z,2.80
2019-01-14T16:01:07.257Z,2.50
2019-01-14T16:03:36.086Z,2.57
2019-01-14T16:06:04.735Z,2.70
2019-01-14T16:08:34.051Z,3.30
2019-01-14T16:11:02.811Z,2.83
2019-01-14T16:13:32.448Z,2.70
2019-01-14T16:16:01.146Z,2.97
2019-01-14T16:18:30.390Z,3.40
2019-01-14T16:20:59.081Z,3.47
2019-01-14T16:23:28.576Z,3.67
2019-01-14T16:26:04.791Z,2.77
2019-01-14T16:28:37.133Z,4.67
2019-01-14T16:31:06.278Z,2.67
2019-01-14T16:33:37.820Z,2.50
2019-01-14T16:36:06.573Z,3.57
2019-01-14T16:38:38.446Z,5.30
2019-01-14T16:41:07.560Z,5.30
2019-01-14T16:43:38.974Z,7.87
2019-01-14T16:46:07.668Z,11.07
2019-01-14T16:48:36.350Z,13.23
2019-01-14T16:51:05.752Z,5.73
2019-01-14T16:53:34.656Z,4.53
2019-01-14T16:56:04.220Z,6.77
2019-01-14T16:58:34.532Z,6.83
2019-01-14T17:01:05.656Z,6.57
2019-01-14T17:03:35.112Z,6.63
2019-01-14T17:06:07.491Z,4.27
2019-01-14T17:08:36.581Z,5.80
2019-01-14T17:11:08.324Z,5.00
2019-01-14T17:13:38.710Z,9.10
2019-01-14T17:16:10.117Z,4.93
2019-01-14T17:18:39.020Z,5.50
2019-01-14T17:21:07.787Z,3.90
2019-01-14T17:23:36.528Z,3.83
2019-01-14T17:26:05.145Z,4.10
2019-01-14T17:28:33.751Z,4.73
2019-01-14T17:31:05.490Z,4.03
2019-01-14T17:33:34.262Z,5.00
2019-01-14T17:36:03.576Z,4.77
2019-01-14T17:38:32.739Z,4.63
2019-01-14T17:41:02.371Z,4.23
2019-01-14T17:43:32.388Z,4.43
2019-01-14T17:46:01.027Z,4.67
2019-01-14T17:48:31.232Z,5.90
2019-01-14T17:51:00.380Z,4.97
2019-01-14T17:53:31.443Z,4.03
2019-01-14T17:56:01.089Z,4.10
2019-01-14T17:58:29.861Z,5.03
2019-01-14T18:00:58.623Z,4.40
2019-01-14T18:03:27.745Z,6.27
2019-01-14T18:05:56.584Z,5.60
2019-01-14T18:11:04.548Z,4.50
2019-01-14T18:13:37.098Z,4.23
2019-01-14T18:16:06.845Z,5.00
2019-01-14T18:18:36.610Z,5.37
2019-01-14T18:21:13.379Z,5.23
2019-01-14T18:23:41.170Z,5.53
2019-01-14T18:26:11.929Z,6.10
2019-01-14T18:28:44.625Z,5.60
2019-01-14T18:31:16.718Z,5.33
2019-01-14T18:33:48.747Z,5.57
2019-01-14T18:36:19.018Z,4.97
2019-01-14T18:38:48.741Z,5.07
2019-01-14T18:41:21.393Z,4.57
2019-01-14T18:43:51.054Z,5.87
2019-01-14T18:46:22.647Z,5.07
2019-01-14T18:48:51.847Z,6.70
2019-01-14T18:51:23.135Z,5.27
2019-01-14T18:53:56.015Z,4.13
2019-01-14T18:56:25.529Z,4.00
2019-01-14T18:58:56.160Z,4.37
2019-01-14T19:01:27.373Z,4.93
2019-01-14T19:03:59.751Z,4.33
2019-01-14T19:06:32.010Z,5.10
2019-01-14T19:09:01.217Z,4.63
2019-01-14T19:11:30.763Z,4.40
2019-01-14T19:14:00.144Z,4.03
2019-01-14T19:16:30.241Z,4.07
2019-01-14T19:18:59.920Z,3.37
2019-01-14T19:21:29.649Z,3.10
2019-01-14T19:24:02.673Z,3.60
2019-01-14T19:26:33.084Z,4.53
2019-01-14T19:29:02.569Z,3.80
2019-01-14T19:31:42.798Z,4.50
2019-01-14T19:34:12.661Z,3.50
2019-01-14T19:36:51.164Z,3.47
2019-01-14T19:39:22.875Z,3.87
2019-01-14T19:41:55.028Z,3.30
2019-01-14T19:44:27.366Z,4.43
2019-01-14T19:46:56.767Z,3.80
2019-01-14T19:49:33.655Z,4.17
2019-01-14T19:52:03.319Z,3.93
2019-01-14T19:54:33.049Z,5.13
2019-01-14T19:57:12.423Z,3.50
2019-01-14T19:59:41.446Z,3.60
2019-01-14T20:02:15.182Z,3.07
2019-01-14T20:04:47.757Z,3.10
2019-01-14T20:07:16.963Z,4.20
2019-01-14T20:09:54.823Z,4.40
2019-01-14T20:12:28.189Z,3.77
2019-01-14T20:15:00.786Z,4.73
2019-01-14T20:17:31.569Z,3.73
2019-01-14T20:20:01.181Z,3.73
2019-01-14T20:22:32.304Z,3.93
2019-01-14T20:25:03.187Z,3.57
2019-01-14T20:27:35.960Z,5.47
2019-01-14T20:30:09.483Z,3.17
2019-01-14T20:32:38.914Z,4.13
2019-01-14T20:35:07.612Z,3.23
2019-01-14T20:37:36.443Z,2.90
2019-01-14T20:40:07.690Z,4.27
2019-01-14T20:42:36.533Z,4.27
2019-01-14T20:45:06.839Z,3.63
2019-01-14T20:47:37.681Z,3.43
2019-01-14T20:50:08.077Z,4.20
2019-01-14T20:52:38.925Z,2.63
2019-01-14T20:55:08.182Z,2.87
2019-01-14T20:57:37.763Z,3.53
2019-01-14T21:00:12.077Z,3.10
2019-01-14T21:02:41.471Z,2.90
2019-01-14T21:05:11.641Z,2.43
2019-01-14T21:07:41.260Z,4.43
2019-01-14T21:10:11.706Z,3.53
2019-01-14T21:12:40.442Z,3.80
2019-01-14T21:15:11.505Z,4.83
2019-01-14T21:17:40.466Z,4.43
2019-01-14T21:20:12.572Z,4.23
2019-01-14T21:22:41.215Z,5.13
2019-01-14T21:25:09.786Z,4.80
2019-01-14T21:31:03.156Z,3.67
2019-01-14T21:33:34.512Z,4.53
2019-01-14T21:36:03.407Z,4.30
2019-01-14T21:38:31.932Z,3.27
2019-01-14T21:41:00.526Z,3.63
2019-01-14T21:43:29.657Z,4.10
2019-01-14T21:46:01.573Z,5.03
2019-01-14T21:48:30.414Z,4.27
2019-01-14T21:51:00.500Z,4.10
2019-01-14T21:53:29.389Z,4.57
2019-01-14T21:55:58.730Z,4.37
2019-01-14T21:58:27.097Z,5.27
2019-01-14T22:00:55.442Z,4.70
2019-01-14T22:03:24.766Z,5.13
2019-01-14T22:05:56.630Z,4.27
2019-01-14T22:08:25.182Z,4.93
2019-01-14T22:10:54.370Z,5.17
2019-01-14T22:13:23.624Z,5.10
2019-01-14T22:15:52.691Z,5.70
2019-01-14T22:18:22.190Z,4.30
2019-01-14T22:20:54.000Z,5.83
2019-01-14T22:23:24.798Z,4.53
2019-01-14T22:25:54.354Z,4.97
2019-01-14T22:28:22.979Z,4.20
2019-01-14T22:30:51.249Z,3.40
2019-01-14T22:33:20.392Z,3.83
2019-01-14T22:35:49.113Z,4.60
2019-01-14T22:38:18.915Z,3.57
2019-01-14T22:40:47.791Z,3.90
2019-01-14T22:43:17.433Z,3.80
2019-01-14T22:45:46.464Z,3.70
2019-01-14T22:48:14.854Z,4.73
2019-01-14T22:50:46.609Z,4.43
2019-01-14T22:53:16.422Z,4.07
2019-01-14T22:55:46.336Z,3.50
2019-01-14T22:58:14.908Z,3.47
2019-01-14T23:01:16.228Z,3.70
2019-01-14T23:03:49.368Z,3.57
2019-01-14T23:06:18.798Z,4.27
2019-01-14T23:08:48.701Z,3.00
2019-01-14T23:11:17.845Z,3.00
2019-01-14T23:13:47.078Z,2.97
2019-01-14T23:16:16.087Z,3.10
2019-01-14T23:18:45.180Z,2.70
2019-01-14T23:21:17.205Z,2.80
2019-01-14T23:23:46.056Z,2.60
2019-01-14T23:26:15.402Z,2.20
2019-01-14T23:28:47.377Z,2.47
2019-01-14T23:31:16.126Z,2.43
2019-01-14T23:33:46.013Z,2.83
2019-01-14T23:36:15.206Z,2.50
2019-01-14T23:38:43.829Z,3.07
2019-01-14T23:41:13.626Z,2.90
2019-01-14T23:43:45.998Z,2.97
2019-01-14T23:46:14.459Z,3.90
2019-01-14T23:48:43.919Z,3.00
2019-01-14T23:51:12.395Z,2.80
2019-01-14T23:53:46.639Z,3.43
2019-01-14T23:56:15.931Z,3.00
2019-01-14T23:58:47.245Z,3.57
